sensor_id;sensor_type;location;lat;lon;timestamp;pressure;altitude;pressure_sealevel;temperature;humidity
27040;BME280;14589;51.578;7.306;2023-03-26T05:00:16;99944.25;;;6.66;86.04
27040;BME280;14589;51.578;7.306;2023-03-26T05:02:56;99952.03;;;6.69;86.13
27040;BME280;14589;51.578;7.306;2023-03-26T05:05:29;99942.84;;;6.62;86.29
27040;BME280;14589;51.578;7.306;2023-03-26T05:08:02;99934.19;;;6.59;86.41
27040;BME280;14589;51.578;7.306;2023-03-26T05:10:33;99949.38;;;6.60;86.43
27040;BME280;14589;51.578;7.306;2023-03-26T05:13:08;99937.16;;;6.56;86.28
27040;BME280;14589;51.578;7.306;2023-03-26T05:15:42;99948.66;;;6.58;86.54
27040;BME280;14589;51.578;7.306;2023-03-26T05:18:17;99933.19;;;6.50;86.51
27040;BME280;14589;51.578;7.306;2023-03-26T05:20:52;99934.47;;;6.56;86.76
27040;BME280;14589;51.578;7.306;2023-03-26T05:23:22;99929.66;;;6.49;86.90
27040;BME280;14589;51.578;7.306;2023-03-26T05:26:08;99937.59;;;6.51;86.52
27040;BME280;14589;51.578;7.306;2023-03-26T05:28:40;99934.78;;;6.53;86.83
27040;BME280;14589;51.578;7.306;2023-03-26T05:31:29;99928.66;;;6.50;87.09
27040;BME280;14589;51.578;7.306;2023-03-26T05:34:01;99915.19;;;6.50;86.78
27040;BME280;14589;51.578;7.306;2023-03-26T05:36:32;99916.59;;;6.55;87.38
27040;BME280;14589;51.578;7.306;2023-03-26T05:39:12;99910.81;;;6.59;87.20
27040;BME280;14589;51.578;7.306;2023-03-26T05:42:09;99911.66;;;6.60;87.24
27040;BME280;14589;51.578;7.306;2023-03-26T05:44:55;99904.56;;;6.59;87.56
27040;BME280;14589;51.578;7.306;2023-03-26T05:47:30;99904.13;;;6.63;87.81
27040;BME280;14589;51.578;7.306;2023-03-26T05:50:02;99895.06;;;6.64;87.53
27040;BME280;14589;51.578;7.306;2023-03-26T05:52:33;99887.25;;;6.71;88.06
27040;BME280;14589;51.578;7.306;2023-03-26T05:55:32;99880.03;;;6.71;87.71
27040;BME280;14589;51.578;7.306;2023-03-26T05:58:31;99884.13;;;6.75;87.64
27040;BME280;14589;51.578;7.306;2023-03-26T06:01:21;99881.16;;;6.78;87.59
27040;BME280;14589;51.578;7.306;2023-03-26T06:04:11;99875.59;;;6.80;87.88
27040;BME280;14589;51.578;7.306;2023-03-26T06:06:48;99862.28;;;6.78;87.87
27040;BME280;14589;51.578;7.306;2023-03-26T06:09:21;99869.91;;;6.83;87.93
27040;BME280;14589;51.578;7.306;2023-03-26T06:11:52;99863.38;;;6.85;87.95
27040;BME280;14589;51.578;7.306;2023-03-26T06:14:22;99847.78;;;6.79;87.86
27040;BME280;14589;51.578;7.306;2023-03-26T06:17:17;99850.34;;;6.81;87.85
27040;BME280;14589;51.578;7.306;2023-03-26T06:20:14;99852.75;;;6.84;88.19
27040;BME280;14589;51.578;7.306;2023-03-26T06:22:48;99847.19;;;6.85;87.95
27040;BME280;14589;51.578;7.306;2023-03-26T06:25:44;99846.94;;;6.88;88.48
27040;BME280;14589;51.578;7.306;2023-03-26T06:28:35;99830.44;;;6.91;88.54
27040;BME280;14589;51.578;7.306;2023-03-26T06:31:23;99830.56;;;7.00;88.33
27040;BME280;14589;51.578;7.306;2023-03-26T06:34:05;99837.06;;;7.07;88.27
27040;BME280;14589;51.578;7.306;2023-03-26T06:36:36;99839.44;;;7.10;88.51
27040;BME280;14589;51.578;7.306;2023-03-26T06:39:06;99831.47;;;7.18;88.87
27040;BME280;14589;51.578;7.306;2023-03-26T06:41:37;99835.88;;;7.19;88.98
27040;BME280;14589;51.578;7.306;2023-03-26T06:44:25;99846.78;;;7.27;88.50
27040;BME280;14589;51.578;7.306;2023-03-26T06:47:15;99837.38;;;7.31;87.98
27040;BME280;14589;51.578;7.306;2023-03-26T06:50:06;99844.31;;;7.34;88.80
27040;BME280;14589;51.578;7.306;2023-03-26T06:52:57;99847.41;;;7.39;88.56
27040;BME280;14589;51.578;7.306;2023-03-26T06:55:40;99850.78;;;7.41;88.22
27040;BME280;14589;51.578;7.306;2023-03-26T06:58:25;99844.25;;;7.43;88.22
27040;BME280;14589;51.578;7.306;2023-03-26T07:01:14;99842.94;;;7.47;88.27
27040;BME280;14589;51.578;7.306;2023-03-26T07:04:03;99849.75;;;7.51;88.69
27040;BME280;14589;51.578;7.306;2023-03-26T07:06:52;99837.13;;;7.52;88.66
27040;BME280;14589;51.578;7.306;2023-03-26T07:09:41;99842.91;;;7.57;88.09
27040;BME280;14589;51.578;7.306;2023-03-26T07:12:38;99842.44;;;7.61;88.00
27040;BME280;14589;51.578;7.306;2023-03-26T07:15:27;99833.03;;;7.65;88.37
27040;BME280;14589;51.578;7.306;2023-03-26T07:18:24;99827.34;;;7.68;88.18
27040;BME280;14589;51.578;7.306;2023-03-26T07:20:56;99825.34;;;7.70;88.08
27040;BME280;14589;51.578;7.306;2023-03-26T07:23:28;99826.88;;;7.73;88.25
27040;BME280;14589;51.578;7.306;2023-03-26T07:29:25;99823.28;;;7.82;88.15
27040;BME280;14589;51.578;7.306;2023-03-26T07:37:59;99802.91;;;7.88;88.20
27040;BME280;14589;51.578;7.306;2023-03-26T07:41:02;99804.63;;;7.89;87.76
27040;BME280;14589;51.578;7.306;2023-03-26T07:44:00;99799.91;;;7.91;87.34
27040;BME280;14589;51.578;7.306;2023-03-26T07:47:16;99800.59;;;7.93;88.36
27040;BME280;14589;51.578;7.306;2023-03-26T07:50:19;99790.66;;;7.93;87.40
27040;BME280;14589;51.578;7.306;2023-03-26T07:53:02;99801.81;;;7.98;88.03
27040;BME280;14589;51.578;7.306;2023-03-26T07:56:12;99791.72;;;8.00;87.68
27040;BME280;14589;51.578;7.306;2023-03-26T07:59:43;99785.00;;;8.04;88.02
27040;BME280;14589;51.578;7.306;2023-03-26T08:03:02;99778.47;;;8.07;87.98
27040;BME280;14589;51.578;7.306;2023-03-26T08:06:18;99778.47;;;8.07;87.61
27040;BME280;14589;51.578;7.306;2023-03-26T08:09:06;99789.00;;;8.18;88.09
27040;BME280;14589;51.578;7.306;2023-03-26T08:15:40;99775.25;;;8.29;87.94
27040;BME280;14589;51.578;7.306;2023-03-26T08:18:12;99766.63;;;8.26;87.67
27040;BME280;14589;51.578;7.306;2023-03-26T08:20:55;99768.00;;;8.30;87.99
27040;BME280;14589;51.578;7.306;2023-03-26T08:29:59;99768.41;;;8.35;88.07
27040;BME280;14589;51.578;7.306;2023-03-26T08:32:34;99763.53;;;8.38;88.18
27040;BME280;14589;51.578;7.306;2023-03-26T08:35:05;99770.63;;;8.39;87.31
27040;BME280;14589;51.578;7.306;2023-03-26T08:37:38;99758.13;;;8.38;87.64
27040;BME280;14589;51.578;7.306;2023-03-26T08:40:13;99747.63;;;8.35;87.13
27040;BME280;14589;51.578;7.306;2023-03-26T08:57:28;99754.47;;;8.47;87.25
27040;BME280;14589;51.578;7.306;2023-03-26T09:00:31;99752.75;;;8.46;87.97
27040;BME280;14589;51.578;7.306;2023-03-26T09:06:09;99758.16;;;8.46;87.89
27040;BME280;14589;51.578;7.306;2023-03-26T09:11:58;99759.56;;;8.50;88.29
27040;BME280;14589;51.578;7.306;2023-03-26T09:26:17;99749.47;;;8.61;87.49
27040;BME280;14589;51.578;7.306;2023-03-26T09:28:59;99754.59;;;8.64;87.98
27040;BME280;14589;51.578;7.306;2023-03-26T09:32:14;99745.44;;;8.65;87.90
27040;BME280;14589;51.578;7.306;2023-03-26T09:37:55;99755.72;;;8.61;87.33
27040;BME280;14589;51.578;7.306;2023-03-26T09:49:36;99755.41;;;8.64;88.04
27040;BME280;14589;51.578;7.306;2023-03-26T09:52:25;99752.25;;;8.69;88.05
27040;BME280;14589;51.578;7.306;2023-03-26T09:55:16;99744.44;;;8.66;88.06
27040;BME280;14589;51.578;7.306;2023-03-26T10:09:28;99739.78;;;8.76;88.28
27040;BME280;14589;51.578;7.306;2023-03-26T10:15:20;99743.00;;;8.79;87.88
27040;BME280;14589;51.578;7.306;2023-03-26T10:21:10;99743.16;;;8.78;87.43
27040;BME280;14589;51.578;7.306;2023-03-26T10:32:32;99723.56;;;8.76;87.68
27040;BME280;14589;51.578;7.306;2023-03-26T10:35:21;99724.78;;;8.89;87.74
27040;BME280;14589;51.578;7.306;2023-03-26T10:38:17;99725.31;;;8.93;87.90
27040;BME280;14589;51.578;7.306;2023-03-26T10:50:14;99720.31;;;9.06;87.66
27040;BME280;14589;51.578;7.306;2023-03-26T10:58:24;99716.94;;;9.20;86.56
27040;BME280;14589;51.578;7.306;2023-03-26T11:01:00;99712.06;;;9.24;86.69
27040;BME280;14589;51.578;7.306;2023-03-26T11:03:45;99717.31;;;9.25;87.13
27040;BME280;14589;51.578;7.306;2023-03-26T11:09:28;99703.78;;;9.25;86.74
27040;BME280;14589;51.578;7.306;2023-03-26T11:12:26;99708.84;;;9.28;86.54
27040;BME280;14589;51.578;7.306;2023-03-26T11:17:33;99707.50;;;9.32;86.23
27040;BME280;14589;51.578;7.306;2023-03-26T11:20:12;99711.25;;;9.31;86.58
27040;BME280;14589;51.578;7.306;2023-03-26T11:23:16;99703.44;;;9.28;85.71
27040;BME280;14589;51.578;7.306;2023-03-26T11:37:43;99698.34;;;9.17;84.36
27040;BME280;14589;51.578;7.306;2023-03-26T11:40:26;99701.09;;;9.25;85.49
27040;BME280;14589;51.578;7.306;2023-03-26T11:43:01;99701.38;;;9.14;84.91
27040;BME280;14589;51.578;7.306;2023-03-26T11:45:35;99700.16;;;9.01;83.75
27040;BME280;14589;51.578;7.306;2023-03-26T11:48:11;99698.13;;;9.03;84.57
27040;BME280;14589;51.578;7.306;2023-03-26T11:50:46;99700.63;;;8.96;82.94
27040;BME280;14589;51.578;7.306;2023-03-26T11:53:27;99706.41;;;8.93;84.08
27040;BME280;14589;51.578;7.306;2023-03-26T11:56:02;99694.53;;;8.86;84.84
27040;BME280;14589;51.578;7.306;2023-03-26T11:58:42;99703.75;;;8.67;82.44
27040;BME280;14589;51.578;7.306;2023-03-26T12:01:24;99702.69;;;8.60;82.41
27040;BME280;14589;51.578;7.306;2023-03-26T12:04:12;99689.03;;;8.62;83.34
27040;BME280;14589;51.578;7.306;2023-03-26T12:06:58;99695.47;;;8.69;83.67
27040;BME280;14589;51.578;7.306;2023-03-26T12:09:34;99688.78;;;8.81;84.27
27040;BME280;14589;51.578;7.306;2023-03-26T12:12:04;99683.25;;;8.99;85.14
27040;BME280;14589;51.578;7.306;2023-03-26T12:14:41;99690.22;;;9.09;85.36
27040;BME280;14589;51.578;7.306;2023-03-26T12:17:24;99686.81;;;8.99;82.95
27040;BME280;14589;51.578;7.306;2023-03-26T12:19:57;99692.06;;;9.09;83.34
27040;BME280;14589;51.578;7.306;2023-03-26T12:22:34;99687.47;;;9.01;82.82
27040;BME280;14589;51.578;7.306;2023-03-26T12:25:23;99678.13;;;8.79;82.56
27040;BME280;14589;51.578;7.306;2023-03-26T12:27:58;99694.88;;;8.91;82.90
27040;BME280;14589;51.578;7.306;2023-03-26T12:30:34;99691.84;;;8.86;82.89
27040;BME280;14589;51.578;7.306;2023-03-26T12:33:14;99696.22;;;8.87;84.59
27040;BME280;14589;51.578;7.306;2023-03-26T12:35:47;99701.78;;;8.85;83.93
27040;BME280;14589;51.578;7.306;2023-03-26T12:41:08;99696.44;;;9.02;84.51
27040;BME280;14589;51.578;7.306;2023-03-26T12:43:43;99690.56;;;9.14;83.11
27040;BME280;14589;51.578;7.306;2023-03-26T12:46:34;99692.28;;;9.23;83.27
27040;BME280;14589;51.578;7.306;2023-03-26T12:49:06;99691.09;;;9.26;81.40
27040;BME280;14589;51.578;7.306;2023-03-26T12:51:48;99687.91;;;9.39;81.68
27040;BME280;14589;51.578;7.306;2023-03-26T12:57:32;99674.75;;;9.68;81.69
27040;BME280;14589;51.578;7.306;2023-03-26T13:00:17;99681.16;;;9.91;82.13
27040;BME280;14589;51.578;7.306;2023-03-26T13:03:22;99685.91;;;10.05;80.86
27040;BME280;14589;51.578;7.306;2023-03-26T13:06:12;99677.75;;;10.13;79.72
27040;BME280;14589;51.578;7.306;2023-03-26T13:19:53;99676.69;;;10.47;79.08
27040;BME280;14589;51.578;7.306;2023-03-26T13:25:33;99668.19;;;11.51;78.36
27040;BME280;14589;51.578;7.306;2023-03-26T13:31:25;99673.78;;;11.49;73.36
27040;BME280;14589;51.578;7.306;2023-03-26T13:34:31;99675.00;;;11.47;74.86
27040;BME280;14589;51.578;7.306;2023-03-26T13:42:58;99664.34;;;10.83;75.18
27040;BME280;14589;51.578;7.306;2023-03-26T13:46:05;99676.44;;;10.73;73.06
27040;BME280;14589;51.578;7.306;2023-03-26T13:48:44;99659.91;;;10.43;72.43
27040;BME280;14589;51.578;7.306;2023-03-26T13:51:33;99673.69;;;10.34;72.99
27040;BME280;14589;51.578;7.306;2023-03-26T13:57:08;99677.06;;;10.28;75.41
27040;BME280;14589;51.578;7.306;2023-03-26T14:02:40;99675.38;;;10.10;74.26
27040;BME280;14589;51.578;7.306;2023-03-26T14:08:04;99680.47;;;10.05;75.54
27040;BME280;14589;51.578;7.306;2023-03-26T14:10:44;99689.63;;;9.88;75.86
27040;BME280;14589;51.578;7.306;2023-03-26T14:13:28;99687.59;;;9.74;76.67
27040;BME280;14589;51.578;7.306;2023-03-26T14:16:13;99686.25;;;9.62;76.64
27040;BME280;14589;51.578;7.306;2023-03-26T14:18:52;99687.41;;;9.43;77.61
27040;BME280;14589;51.578;7.306;2023-03-26T14:24:30;99697.38;;;9.34;77.50
27040;BME280;14589;51.578;7.306;2023-03-26T14:27:16;99699.03;;;9.27;78.61
27040;BME280;14589;51.578;7.306;2023-03-26T14:30:14;99709.84;;;9.27;
27040;BME280;14589;51.578;7.306;2023-03-26T14:39:27;99713.56;;;9.18;80.79
27040;BME280;14589;51.578;7.306;2023-03-26T14:42:06;99717.78;;;9.13;80.16
27040;BME280;14589;51.578;7.306;2023-03-26T14:47:27;99714.59;;;9.17;82.96
27040;BME280;14589;51.578;7.306;2023-03-26T15:01:24;99733.63;;;9.00;83.56
27040;BME280;14589;51.578;7.306;2023-03-26T15:10:21;99750.03;;;8.72;84.13
27040;BME280;14589;51.578;7.306;2023-03-26T15:19:44;99756.31;;;8.73;85.19
27040;BME280;14589;51.578;7.306;2023-03-26T15:22:30;99769.25;;;8.61;82.76
27040;BME280;14589;51.578;7.306;2023-03-26T15:39:47;99799.66;;;8.37;83.50
27040;BME280;14589;51.578;7.306;2023-03-26T15:42:47;99796.97;;;8.37;84.22
27040;BME280;14589;51.578;7.306;2023-03-26T15:45:37;99800.66;;;8.36;83.01
27040;BME280;14589;51.578;7.306;2023-03-26T15:48:16;99814.38;;;8.25;82.34
27040;BME280;14589;51.578;7.306;2023-03-26T16:02:34;99832.13;;;8.10;84.17
27040;BME280;14589;51.578;7.306;2023-03-26T16:08:03;99836.00;;;8.07;84.04
27040;BME280;14589;51.578;7.306;2023-03-26T16:10:55;99831.47;;;8.08;85.17
27040;BME280;14589;51.578;7.306;2023-03-26T16:13:38;99830.44;;;8.09;84.85
27040;BME280;14589;51.578;7.306;2023-03-26T16:22:01;99845.59;;;8.02;84.32
27040;BME280;14589;51.578;7.306;2023-03-26T16:24:35;99854.22;;;8.05;84.26
27040;BME280;14589;51.578;7.306;2023-03-26T16:30:10;99870.41;;;8.05;84.69
27040;BME280;14589;51.578;7.306;2023-03-26T16:32:53;99866.16;;;8.03;83.63
27040;BME280;14589;51.578;7.306;2023-03-26T16:35:39;99864.06;;;7.97;83.62
27040;BME280;14589;51.578;7.306;2023-03-26T16:38:14;99873.88;;;7.98;82.34
27040;BME280;14589;51.578;7.306;2023-03-26T16:40:59;99883.56;;;7.91;82.41
27040;BME280;14589;51.578;7.306;2023-03-26T16:46:33;99891.91;;;7.97;82.70
27040;BME280;14589;51.578;7.306;2023-03-26T16:49:21;99900.94;;;7.88;81.95
27040;BME280;14589;51.578;7.306;2023-03-26T16:55:10;99921.94;;;7.94;81.98
27040;BME280;14589;51.578;7.306;2023-03-26T17:00:39;99925.47;;;7.95;82.27
27040;BME280;14589;51.578;7.306;2023-03-26T17:03:38;99924.25;;;7.89;81.05
27040;BME280;14589;51.578;7.306;2023-03-26T17:06:49;99936.56;;;7.92;81.30
27040;BME280;14589;51.578;7.306;2023-03-26T17:09:32;99944.59;;;7.84;82.52
27040;BME280;14589;51.578;7.306;2023-03-26T17:12:13;99956.06;;;7.86;82.46
27040;BME280;14589;51.578;7.306;2023-03-26T17:15:16;99950.28;;;7.81;81.96
27040;BME280;14589;51.578;7.306;2023-03-26T17:21:12;99966.47;;;7.81;82.23
27040;BME280;14589;51.578;7.306;2023-03-26T17:23:59;99977.47;;;7.69;80.27
27040;BME280;14589;51.578;7.306;2023-03-26T17:26:51;99990.25;;;7.67;80.48
27040;BME280;14589;51.578;7.306;2023-03-26T17:30:00;99980.34;;;7.58;80.26
27040;BME280;14589;51.578;7.306;2023-03-26T17:32:54;99995.94;;;7.64;80.31
27040;BME280;14589;51.578;7.306;2023-03-26T17:40:56;100013.00;;;7.55;78.71
27040;BME280;14589;51.578;7.306;2023-03-26T17:43:45;100018.44;;;7.46;78.10
27040;BME280;14589;51.578;7.306;2023-03-26T17:48:53;100024.56;;;7.38;78.63
27040;BME280;14589;51.578;7.306;2023-03-26T17:54:17;100032.66;;;7.28;77.47
27040;BME280;14589;51.578;7.306;2023-03-26T17:56:51;100050.56;;;7.29;77.03
27040;BME280;14589;51.578;7.306;2023-03-26T17:59:24;100051.72;;;7.27;77.07
27040;BME280;14589;51.578;7.306;2023-03-26T18:01:58;100055.97;;;7.20;75.83
27040;BME280;14589;51.578;7.306;2023-03-26T18:04:35;100068.47;;;7.21;75.63
27040;BME280;14589;51.578;7.306;2023-03-26T18:18:35;100100.13;;;7.09;75.93
27040;BME280;14589;51.578;7.306;2023-03-26T18:21:17;100104.94;;;7.06;75.99
27040;BME280;14589;51.578;7.306;2023-03-26T18:23:49;100115.84;;;7.04;76.67
27040;BME280;14589;51.578;7.306;2023-03-26T18:26:35;100119.81;;;7.00;75.58
27040;BME280;14589;51.578;7.306;2023-03-26T18:31:55;100127.34;;;6.97;76.33
27040;BME280;14589;51.578;7.306;2023-03-26T18:34:30;100128.59;;;6.93;76.36
27040;BME280;14589;51.578;7.306;2023-03-26T18:39:54;100144.09;;;6.90;75.05
27040;BME280;14589;51.578;7.306;2023-03-26T18:42:26;100145.19;;;6.88;74.74
27040;BME280;14589;51.578;7.306;2023-03-26T18:44:58;100147.47;;;6.83;73.82
27040;BME280;14589;51.578;7.306;2023-03-26T18:47:32;100160.81;;;6.84;73.57
27040;BME280;14589;51.578;7.306;2023-03-26T18:50:06;100168.31;;;6.81;73.30
27040;BME280;14589;51.578;7.306;2023-03-26T18:52:37;100175.66;;;6.79;74.05
27040;BME280;14589;51.578;7.306;2023-03-26T18:55:10;100168.31;;;6.81;74.61
27040;BME280;14589;51.578;7.306;2023-03-26T18:57:42;100179.22;;;6.79;74.52
27040;BME280;14589;51.578;7.306;2023-03-26T19:00:20;100174.13;;;6.76;74.49
27040;BME280;14589;51.578;7.306;2023-03-26T19:03:21;100184.75;;;6.78;74.39
27040;BME280;14589;51.578;7.306;2023-03-26T19:05:54;100187.59;;;6.76;73.86
27040;BME280;14589;51.578;7.306;2023-03-26T19:08:25;100200.63;;;6.71;73.64
27040;BME280;14589;51.578;7.306;2023-03-26T19:10:56;100193.53;;;6.70;72.97
27040;BME280;14589;51.578;7.306;2023-03-26T19:13:27;100196.47;;;6.67;72.56
27040;BME280;14589;51.578;7.306;2023-03-26T19:15:58;100209.38;;;6.64;72.21
27040;BME280;14589;51.578;7.306;2023-03-26T19:18:28;100210.50;;;6.61;72.22
27040;BME280;14589;51.578;7.306;2023-03-26T19:21:00;100227.38;;;6.63;70.48
27040;BME280;14589;51.578;7.306;2023-03-26T19:23:35;100228.25;;;6.64;71.11
27040;BME280;14589;51.578;7.306;2023-03-26T19:26:08;100233.88;;;6.61;71.59
27040;BME280;14589;51.578;7.306;2023-03-26T19:28:48;100233.19;;;6.59;69.99
27040;BME280;14589;51.578;7.306;2023-03-26T19:31:33;100243.13;;;6.58;70.95
27040;BME280;14589;51.578;7.306;2023-03-26T19:34:13;100246.78;;;6.57;71.06
27040;BME280;14589;51.578;7.306;2023-03-26T19:36:58;100254.13;;;6.55;70.35
27040;BME280;14589;51.578;7.306;2023-03-26T19:39:45;100252.72;;;6.51;70.09
27040;BME280;14589;51.578;7.306;2023-03-26T19:42:36;100260.78;;;6.51;69.98
27040;BME280;14589;51.578;7.306;2023-03-26T19:45:13;100262.06;;;6.47;70.93
27040;BME280;14589;51.578;7.306;2023-03-26T19:47:46;100267.69;;;6.44;69.19
27040;BME280;14589;51.578;7.306;2023-03-26T19:50:24;100264.28;;;6.42;68.88
27040;BME280;14589;51.578;7.306;2023-03-26T19:55:40;100281.16;;;6.44;69.51
27040;BME280;14589;51.578;7.306;2023-03-26T19:58:12;100288.69;;;6.40;69.36
27040;BME280;14589;51.578;7.306;2023-03-26T20:00:42;100289.34;;;6.33;66.56
27040;BME280;14589;51.578;7.306;2023-03-26T20:03:13;100296.84;;;6.29;66.86
27040;BME280;14589;51.578;7.306;2023-03-26T20:05:45;100310.09;;;6.21;65.56
27040;BME280;14589;51.578;7.306;2023-03-26T20:08:16;100307.28;;;6.23;64.12
27040;BME280;14589;51.578;7.306;2023-03-26T20:10:47;100320.66;;;6.13;64.49
27040;BME280;14589;51.578;7.306;2023-03-26T20:13:18;100331.81;;;6.08;63.98
27040;BME280;14589;51.578;7.306;2023-03-26T20:16:17;100344.13;;;6.11;64.23
27040;BME280;14589;51.578;7.306;2023-03-26T20:18:49;100338.44;;;6.04;64.00
27040;BME280;14589;51.578;7.306;2023-03-26T20:21:19;100347.75;;;6.00;64.54
27040;BME280;14589;51.578;7.306;2023-03-26T20:23:51;100349.84;;;5.97;64.56
27040;BME280;14589;51.578;7.306;2023-03-26T20:26:23;100352.09;;;5.92;64.37
27040;BME280;14589;51.578;7.306;2023-03-26T20:28:54;100343.75;;;5.84;64.36
27040;BME280;14589;51.578;7.306;2023-03-26T20:31:25;100371.53;;;5.84;64.07
27040;BME280;14589;51.578;7.306;2023-03-26T20:33:56;100376.03;;;5.84;65.09
27040;BME280;14589;51.578;7.306;2023-03-26T20:36:26;100372.63;;;5.82;65.22
27040;BME280;14589;51.578;7.306;2023-03-26T20:38:57;100388.28;;;5.77;66.46
27040;BME280;14589;51.578;7.306;2023-03-26T20:41:28;100378.53;;;5.64;65.95
27040;BME280;14589;51.578;7.306;2023-03-26T20:43:58;100392.63;;;5.57;65.79
27040;BME280;14589;51.578;7.306;2023-03-26T20:46:29;100406.06;;;5.57;65.43
27040;BME280;14589;51.578;7.306;2023-03-26T20:48:59;100420.84;;;5.51;64.12
27040;BME280;14589;51.578;7.306;2023-03-26T20:51:30;100411.56;;;5.44;64.73
27040;BME280;14589;51.578;7.306;2023-03-26T20:54:00;100425.41;;;5.40;63.68
27040;BME280;14589;51.578;7.306;2023-03-26T20:56:32;100418.91;;;5.31;64.74
27040;BME280;14589;51.578;7.306;2023-03-26T20:59:04;100426.38;;;5.27;64.14
27040;BME280;14589;51.578;7.306;2023-03-26T21:01:34;100431.16;;;5.24;64.96
27040;BME280;14589;51.578;7.306;2023-03-26T21:04:05;100431.88;;;5.15;65.02
27040;BME280;14589;51.578;7.306;2023-03-26T21:06:35;100432.47;;;5.07;64.95
27040;BME280;14589;51.578;7.306;2023-03-26T21:09:10;100449.34;;;4.98;65.55
27040;BME280;14589;51.578;7.306;2023-03-26T21:11:51;100464.72;;;4.96;65.97
27040;BME280;14589;51.578;7.306;2023-03-26T21:14:32;100466.06;;;4.91;66.06
27040;BME280;14589;51.578;7.306;2023-03-26T21:17:03;100462.50;;;4.79;66.20
27040;BME280;14589;51.578;7.306;2023-03-26T21:19:34;100471.78;;;4.75;66.46
27040;BME280;14589;51.578;7.306;2023-03-26T21:22:37;100486.63;;;4.68;66.63
27040;BME280;14589;51.578;7.306;2023-03-26T21:25:27;100486.97;;;4.63;66.66
27040;BME280;14589;51.578;7.306;2023-03-26T21:28:24;100497.47;;;4.55;66.96
